ADDS METAR Data INFO
IDs: Format: Raw Decoded Include TAF

Data at: 2026 UTC 20 Jul 2017

METAR for:EBBE (Beauvechain(AB), --, BX)
Text:EBBE 201955Z AUTO 25006KT 9999 NCD 17/06 Q1013 BLU
Temperature: 17.0°C ( 63°F)
Dewpoint: 6.0°C ( 43°F) [RH = 48%]
Pressure (altimeter):29.91 inches Hg (1013.0 mb)
Winds:from the WSW (250 degrees) at 7 MPH (6 knots; 3.1 m/s)
Visibility:6 or more sm (10+ km)
Ceiling:at least 12,000 feet AGL
Clouds:sky clear below 12,000 feet AGL

TAF for:EBBE (Beauvechain(AB), --, BX) issued at 1542 UTC 20 Jul 2017
Text:TAF EBBE 201542Z 2019/2107 21008KT 9999 FEW050 SCT070
Forecast period:1900 UTC 20 July 2017 to 0700 UTC 21 July 2017
Forecast type:FROM: standard forecast or significant change
Winds:from the SSW (210 degrees) at 9 MPH (8 knots; 4.1 m/s)
Visibility:6 or more sm (10+ km)
Ceiling:at least 12,000 feet AGL
Clouds: few clouds at 5000 feet AGL, scattered clouds at 7000 feet AGL